Date,TemperatureHighF,TemperatureAvgF,TemperatureLowF,DewpointHighF,DewpointAvgF,DewpointLowF,HumidityHigh,HumidityAvg,HumidityLow,PressureMaxIn,PressureMinIn,WindSpeedMaxMPH,WindSpeedAvgMPH,GustSpeedMaxMPH,PrecipitationSumIn
2013-1-1,54.4,42.3,33.2,41.0,34.9,29.0,85,76,54,30.28,30.22,14,5,18,0.00
2013-1-2,55.9,43.2,33.0,44.0,35.2,28.0,83,74,53,30.23,30.12,16,7,18,0.00
2013-1-3,55.7,45.4,36.1,44.0,37.4,30.0,83,74,59,30.27,30.13,13,5,18,0.00
2013-1-4,56.2,44.9,37.0,48.0,39.2,33.0,85,80,72,30.29,30.19,10,5,14,0.00
2013-1-5,51.8,46.6,40.5,44.0,40.6,35.0,86,80,74,30.23,30.04,14,6,22,0.43
2013-1-6,54.4,47.2,41.4,46.0,41.3,37.0,85,80,70,30.22,30.10,9,3,17,0.06
2013-1-7,57.7,49.9,43.1,50.0,43.9,38.0,84,80,74,30.26,30.17,13,3,19,0.00
2013-1-8,56.6,50.1,44.8,50.0,44.9,40.0,86,82,78,30.25,30.13,9,2,14,0.00
2013-1-9,53.0,48.3,41.6,48.0,42.8,36.0,86,81,72,30.17,30.03,21,3,22,0.05
2013-1-10,50.0,42.8,37.0,40.0,35.4,32.0,84,76,61,30.24,30.09,10,3,19,0.05
2013-1-11,49.6,42.8,36.8,42.0,35.9,31.0,81,76,72,30.27,30.16,12,3,22,0.00
2013-1-12,51.3,41.9,34.1,39.0,32.9,28.0,80,71,47,30.25,30.14,12,5,18,0.00
2013-1-13,51.4,38.6,31.1,40.0,31.9,26.0,88,77,62,30.26,30.19,16,7,19,0.00
2013-1-14,53.9,40.2,31.1,38.0,31.7,26.0,83,73,49,30.40,30.25,14,6,20,0.00
2013-1-15,52.8,41.2,32.7,44.0,35.2,28.0,84,79,68,30.47,30.39,12,5,14,0.00
2013-1-16,54.2,41.9,33.3,46.0,35.5,29.0,85,79,55,30.44,30.27,13,6,16,0.00
2013-1-17,52.3,41.8,34.0,46.0,36.9,30.0,86,83,77,30.28,30.17,11,5,17,0.01
2013-1-18,54.0,43.1,34.5,47.0,37.7,30.0,85,81,75,30.22,30.14,12,5,13,0.01
2013-1-19,57.3,44.9,35.4,48.0,37.8,30.0,83,76,58,30.23,30.15,17,7,20,0.00
2013-1-20,58.8,45.9,35.7,48.0,37.6,30.0,81,74,56,30.22,30.13,17,7,19,0.00
2013-1-21,61.5,47.5,36.0,45.0,37.5,30.0,80,70,44,30.16,30.05,21,6,23,0.00
2013-1-22,70.4,55.9,43.1,45.0,34.1,29.0,71,46,26,30.07,29.97,13,5,22,0.00
2013-1-23,59.8,54.1,50.3,47.0,41.9,33.0,83,66,38,30.07,29.90,17,6,33,0.34
2013-1-24,58.3,53.6,50.6,52.0,48.3,46.0,85,82,78,30.20,30.05,10,2,15,0.01
2013-1-25,57.6,53.3,49.1,52.0,48.3,44.0,85,83,79,30.20,30.08,7,1,11,0.00
2013-1-26,54.5,49.7,44.2,47.0,42.4,38.0,85,76,56,30.10,30.02,18,3,22,0.00
2013-1-27,52.0,45.7,39.8,43.0,37.8,33.0,79,74,63,30.22,30.10,17,3,21,0.00
2013-1-28,53.0,47.1,41.6,44.0,40.1,36.0,82,77,69,30.35,30.20,12,4,24,0.00
2013-1-29,54.5,47.8,42.0,46.0,40.9,36.0,81,77,73,30.38,30.31,12,4,22,0.00
2013-1-30,58.2,48.0,41.6,46.0,40.7,36.0,83,76,61,30.35,30.27,9,4,12,0.00
2013-1-31,56.3,46.2,38.6,47.0,40.1,34.0,85,80,68,30.30,30.18,12,5,14,0.01
2013-2-1,60.2,48.4,38.6,48.0,41.2,34.0,85,77,60,30.22,30.12,13,5,18,0.00
2013-2-2,55.8,49.3,45.2,48.0,43.6,40.0,84,80,73,30.32,30.22,6,2,10,0.00
2013-2-3,54.9,48.7,42.9,47.0,42.5,38.0,83,79,74,30.27,30.15,12,2,17,0.00
2013-2-4,53.3,46.4,38.8,47.0,41.2,35.0,85,82,77,30.19,30.09,7,3,10,0.00
2013-2-5,55.7,48.4,41.5,48.0,42.4,36.0,83,80,75,30.20,30.08,11,2,14,0.00
2013-2-6,53.8,46.0,37.8,47.0,40.1,33.0,85,80,75,30.21,30.14,10,4,13,0.01
2013-2-7,55.1,46.9,40.0,46.0,41.2,36.0,86,81,64,30.16,30.01,11,3,12,0.35
2013-2-8,53.0,43.7,34.3,44.0,37.4,31.0,87,79,67,30.05,29.97,11,4,20,0.01
2013-2-9,57.9,44.3,33.5,42.0,34.3,28.0,82,70,37,30.10,30.03,11,4,17,0.00
2013-2-10,55.2,43.3,33.3,46.0,36.7,29.0,84,78,63,30.12,30.04,11,5,15,0.00
2013-2-11,57.9,45.2,35.7,48.0,38.5,31.0,83,78,59,30.22,30.09,14,5,18,0.00
2013-2-12,53.8,44.1,35.8,46.0,39.0,32.0,86,82,75,30.39,30.22,9,4,10,0.00
2013-2-13,56.6,45.3,35.1,49.0,39.9,31.0,85,81,71,30.36,30.21,11,4,12,0.01
2013-2-14,54.1,46.7,40.3,47.0,41.6,36.0,86,82,77,30.26,30.18,10,3,11,0.01
2013-2-15,68.0,51.7,40.2,49.0,40.5,35.0,83,69,32,30.27,30.20,14,6,17,0.00
2013-2-16,58.9,47.9,41.0,49.0,41.6,36.0,84,79,68,30.24,30.08,11,4,15,0.00
2013-2-17,55.7,47.3,39.2,46.0,40.2,33.0,83,76,67,30.09,29.98,10,3,16,0.01
2013-2-18,52.3,44.9,35.8,43.0,38.3,31.0,84,78,67,30.03,29.95,17,5,21,0.00
2013-2-19,48.8,43.5,35.9,42.0,37.0,31.0,84,78,66,29.98,29.79,16,4,24,0.24
2013-2-20,54.1,46.1,38.2,42.0,36.8,32.0,80,70,56,30.12,29.89,15,4,27,0.00
2013-2-21,54.2,47.0,38.8,44.0,38.8,33.0,81,73,63,30.20,30.11,14,4,21,0.00
2013-2-22,54.1,47.7,40.1,46.0,40.0,34.0,80,75,62,30.28,30.20,15,4,20,0.00
2013-2-23,52.8,47.5,40.9,42.0,37.5,34.0,79,69,58,30.31,30.23,16,6,26,0.02
2013-2-24,56.6,46.3,36.6,44.0,38.1,31.0,80,73,58,30.31,30.18,11,3,18,0.00
2013-2-25,58.1,47.3,39.4,46.0,39.2,33.0,80,74,52,30.30,30.20,15,4,20,0.00
2013-2-26,57.7,45.6,36.9,45.0,37.2,30.0,80,73,55,30.25,30.17,9,3,14,0.00
2013-2-27,57.3,47.5,36.8,45.0,39.7,31.0,82,75,61,30.39,30.24,11,4,17,0.00
2013-2-28,57.1,50.7,46.4,50.0,45.3,42.0,85,82,77,30.48,30.38,10,2,16,0.00
2013-3-1,58.6,49.5,44.0,50.0,44.2,39.0,87,82,74,30.45,30.26,7,2,10,0.01
2013-3-2,56.6,49.0,44.0,50.0,44.0,40.0,86,83,76,30.26,30.08,6,2,11,0.01
2013-3-3,53.9,50.1,45.4,48.0,44.9,40.0,85,82,77,30.10,30.04,12,3,17,0.00
2013-3-4,52.6,46.4,37.2,45.0,40.4,33.0,85,80,73,30.16,30.06,11,3,13,0.00
2013-3-5,55.1,47.6,36.8,46.0,41.9,32.0,86,81,70,30.07,29.75,24,11,38,0.89
2013-3-6,57.8,48.9,40.7,50.0,42.7,36.0,85,79,70,30.06,29.78,22,6,32,0.13
2013-3-7,55.9,46.6,38.3,47.0,40.3,34.0,84,79,66,30.00,29.90,12,4,18,0.00
2013-3-8,54.1,46.3,36.9,45.0,39.7,32.0,85,78,68,30.08,29.88,20,6,24,0.00
2013-3-9,58.2,48.1,39.4,49.0,41.4,34.0,82,78,68,30.34,30.08,14,4,18,0.00
2013-3-10,58.9,47.6,38.2,49.0,41.5,34.0,83,79,67,30.36,30.25,12,4,13,0.00
2013-3-11,59.6,48.3,39.9,51.0,42.8,36.0,86,81,73,30.28,30.12,11,3,18,0.00
2013-3-12,58.7,48.5,41.5,50.0,43.2,37.0,85,82,74,30.18,30.10,8,2,12,0.01
2013-3-13,58.5,47.8,40.5,51.0,42.8,36.0,87,83,75,30.21,30.09,6,2,10,0.01
2013-3-14,56.7,49.2,44.0,50.0,44.2,40.0,87,83,79,30.20,30.09,10,2,17,0.00
2013-3-15,59.4,51.0,45.2,52.0,45.4,40.0,85,81,76,30.16,30.06,12,3,17,0.00
2013-3-16,57.3,50.6,43.5,49.0,44.5,39.0,84,80,70,30.19,30.06,15,4,21,0.01
2013-3-17,56.7,49.2,42.5,47.0,42.3,38.0,84,77,63,30.19,30.08,13,4,22,0.01
2013-3-18,57.4,48.8,41.3,48.0,42.5,36.0,82,79,70,30.15,30.04,9,3,14,0.00
2013-3-19,57.1,49.9,44.4,50.0,43.3,38.0,87,78,62,30.15,30.05,12,2,21,0.11
2013-3-20,57.5,51.0,43.8,53.0,46.5,39.0,86,84,83,30.19,30.02,14,3,19,0.25
2013-3-21,54.5,46.7,38.0,45.0,39.5,33.0,85,76,65,30.18,30.07,12,4,24,0.01
2013-3-22,57.8,47.0,37.5,43.0,37.9,31.0,83,71,57,30.17,30.09,18,4,21,0.00
2013-3-23,56.6,47.6,39.2,46.0,39.9,34.0,82,75,59,30.15,30.07,13,4,26,0.00
2013-3-24,55.1,48.5,41.1,48.0,42.3,36.0,82,79,74,30.10,29.97,11,3,17,0.00
2013-3-25,53.7,46.3,39.0,46.0,40.9,35.0,84,81,74,30.04,29.96,12,3,16,0.10
2013-3-26,58.4,48.6,40.2,50.0,42.9,36.0,89,81,69,30.02,29.97,6,3,8,0.01
2013-3-27,59.0,51.9,46.3,54.0,46.9,41.0,86,83,79,30.02,29.94,10,2,15,0.03
2013-3-28,60.5,53.9,49.4,54.0,48.8,45.0,86,83,78,30.11,30.01,12,2,14,0.02
2013-3-29,61.9,52.6,48.3,54.0,47.6,44.0,85,83,74,30.11,30.02,5,2,7,0.00
2013-3-30,61.7,54.7,49.3,54.0,49.5,45.0,86,82,75,30.09,30.01,14,4,21,0.04
2013-3-31,62.1,55.7,52.4,56.0,50.9,48.0,86,84,78,30.07,30.00,14,5,25,0.06
2013-4-1,62.2,54.4,48.2,55.0,49.1,44.0,85,82,70,30.17,30.03,8,2,12,0.00
2013-4-2,57.3,50.4,45.2,52.0,45.9,41.0,86,84,79,30.21,30.12,8,3,13,0.01
2013-4-3,55.8,49.2,44.4,50.0,44.8,41.0,87,85,78,30.14,30.00,6,2,9,0.00
2013-4-4,57.8,53.6,49.5,54.0,49.9,45.0,87,87,85,30.11,29.96,14,5,24,0.77
2013-4-5,64.2,56.3,52.7,57.0,51.8,49.0,88,85,72,30.20,30.11,6,2,8,0.03
2013-4-6,60.9,55.3,53.1,56.0,51.0,49.0,87,85,81,30.20,30.12,7,2,10,0.09
2013-4-7,58.1,53.9,47.5,53.0,49.2,43.0,87,84,78,30.17,29.87,19,3,30,0.24
2013-4-8,55.9,50.6,45.1,46.0,41.8,36.0,84,72,54,30.11,29.88,17,6,27,0.00
2013-4-9,59.9,51.3,41.7,50.0,44.5,37.0,85,78,68,30.17,30.10,11,3,18,0.00
2013-4-10,60.0,53.2,47.8,52.0,47.6,43.0,85,81,74,30.21,30.12,14,3,23,0.00
2013-4-11,59.9,51.2,43.8,49.0,44.9,40.0,85,79,65,30.15,29.89,18,4,29,0.00
2013-4-12,57.6,49.8,43.4,50.0,44.2,39.0,85,81,72,29.94,29.87,16,3,21,0.00
2013-4-13,57.3,50.8,43.7,47.0,42.8,39.0,84,75,61,29.98,29.89,17,4,21,0.00
2013-4-14,52.3,47.7,41.5,44.0,40.3,34.0,85,76,64,29.98,29.90,13,4,22,0.00
2013-4-15,53.6,47.4,42.6,42.0,38.5,35.0,85,72,51,30.03,29.91,21,6,32,0.00
2013-4-16,57.6,49.1,38.6,44.0,39.2,32.0,81,69,55,30.20,30.04,19,5,22,0.00
2013-4-17,58.5,49.3,40.9,46.0,41.8,36.0,84,76,60,30.32,30.21,13,4,20,0.00
2013-4-18,57.2,50.1,42.7,48.0,43.4,38.0,84,78,71,30.29,30.20,9,3,16,0.00
2013-4-19,64.8,53.1,44.6,52.0,45.9,40.0,85,77,62,30.25,30.15,16,4,20,0.00
2013-4-20,57.8,51.1,45.0,48.0,42.4,34.0,81,73,57,30.17,30.02,13,3,18,0.00
2013-4-21,67.1,53.8,45.3,46.0,38.9,32.0,69,58,45,30.06,29.94,9,2,13,0.00
2013-4-22,68.7,56.8,48.5,45.0,39.3,34.0,65,53,36,29.99,29.84,8,2,10,0.00
2013-4-23,66.2,53.9,46.5,49.0,41.7,36.0,77,64,49,29.98,29.86,8,2,9,0.00
2013-4-24,56.5,50.2,44.9,43.0,39.5,34.0,78,67,62,29.97,29.85,9,2,12,0.00
2013-4-25,62.7,53.9,49.1,48.0,40.8,31.0,66,62,45,30.15,29.98,6,2,8,0.00
2013-4-26,55.4,51.3,46.0,36.0,31.4,26.0,52,47,43,30.26,30.13,12,3,15,0.00
2013-4-27,61.3,50.0,45.5,41.0,29.6,26.0,48,46,44,30.25,30.08,9,2,13,0.00
2013-4-28,72.5,55.1,43.3,52.0,36.6,25.0,58,50,47,30.08,29.90,9,2,13,0.00
2013-4-29,64.6,55.1,49.3,48.0,38.7,31.0,61,55,48,29.93,29.85,18,5,21,0.00
2013-4-30,62.7,53.5,44.5,45.0,38.8,28.0,64,58,50,29.90,29.84,17,4,20,0.00
2013-5-1,69.7,56.3,46.8,50.0,40.5,33.0,65,56,43,30.10,29.89,9,2,14,0.00
2013-5-2,75.3,59.2,47.6,51.0,42.5,34.0,63,55,33,30.17,30.08,10,3,14,0.00
2013-5-3,64.9,53.9,46.1,50.0,40.5,34.0,63,61,58,30.09,29.80,7,2,14,0.00
2013-5-4,65.3,55.8,47.3,52.0,43.4,35.0,65,64,61,29.80,29.57,16,6,28,0.00
2013-5-5,61.7,57.7,54.8,49.0,45.8,43.0,68,65,63,29.83,29.61,17,9,32,0.00
2013-5-6,69.5,59.6,52.6,53.0,46.9,41.0,68,63,53,29.97,29.82,8,3,24,0.00
2013-5-7,62.1,54.2,49.3,49.0,43.9,40.0,71,68,62,30.06,29.97,8,3,11,0.00
2013-5-8,58.1,53.5,48.7,49.0,44.5,40.0,73,72,70,30.15,30.04,11,2,18,0.00
2013-5-9,57.7,52.3,46.0,48.0,43.8,38.0,74,73,71,30.18,30.11,11,3,20,0.00
2013-5-10,58.9,52.6,47.1,49.0,44.4,39.0,75,73,71,30.19,30.11,14,3,20,0.00
2013-5-11,62.5,51.8,46.7,52.0,43.5,39.0,76,74,65,30.15,30.07,5,2,9,0.00
2013-5-12,61.9,54.6,48.2,52.0,46.0,40.0,74,73,69,30.17,30.03,11,3,16,0.00
2013-5-13,60.6,54.7,47.8,51.0,45.7,40.0,74,72,69,30.09,29.98,16,4,22,0.01
2013-5-14,63.2,53.6,46.4,49.0,43.9,39.0,74,70,61,30.02,29.94,15,4,24,0.00
2013-5-15,57.7,52.2,45.5,47.0,43.0,38.0,74,71,67,30.07,30.00,18,4,22,0.00
2013-5-16,58.7,54.1,50.0,49.0,44.9,41.0,72,71,69,30.06,29.98,10,2,17,0.00
2013-5-17,57.5,52.6,46.0,48.0,43.3,38.0,73,71,65,30.10,29.99,17,4,18,0.00
2013-5-18,60.5,54.3,47.1,50.0,44.7,39.0,73,70,64,30.17,30.09,17,5,23,0.00
2013-5-19,61.8,54.2,45.5,50.0,44.7,38.0,74,70,64,30.16,30.00,12,4,18,0.00
2013-5-20,60.2,52.9,47.0,49.0,44.1,39.0,74,72,67,30.03,29.94,8,3,19,0.00
2013-5-21,59.2,52.9,46.4,47.0,42.6,38.0,74,68,60,30.10,29.95,23,6,26,0.00
2013-5-22,57.1,51.5,45.8,43.0,39.1,34.0,70,63,52,30.09,29.97,19,6,24,0.00
2013-5-23,63.0,51.6,46.1,45.0,41.4,38.0,74,69,52,30.05,29.96,14,5,27,0.00
2013-5-24,56.7,51.2,43.3,45.0,41.5,36.0,74,70,64,30.04,29.97,15,5,24,0.00
2013-5-25,56.6,51.8,46.3,46.0,42.9,38.0,74,72,68,30.08,29.97,16,5,24,0.00
2013-5-26,59.5,53.7,48.6,49.0,44.8,40.0,74,72,68,30.14,30.06,9,3,15,0.00
2013-5-27,58.9,54.8,49.1,49.0,45.9,41.0,76,72,69,30.14,29.99,6,1,12,0.60
2013-5-28,57.9,54.7,50.8,49.0,45.6,42.0,72,72,71,30.03,29.93,12,2,15,0.02
2013-5-29,59.8,54.9,49.8,50.0,45.6,41.0,73,71,68,30.01,29.92,20,4,27,0.02
2013-5-30,58.2,53.3,47.1,47.0,43.7,39.0,74,70,66,30.03,29.97,17,5,23,0.00
2013-5-31,66.0,55.6,47.3,52.0,45.0,39.0,72,68,60,30.04,29.96,13,4,21,0.00
2013-6-1,71.2,57.4,48.4,52.0,45.4,39.0,72,65,48,29.98,29.84,11,4,18,0.00
2013-6-2,60.5,55.7,50.6,49.0,45.7,42.0,72,69,66,29.84,29.65,11,4,20,0.00
2013-6-3,64.9,55.1,48.0,52.0,45.3,39.0,73,70,63,29.89,29.70,16,3,18,0.00
2013-6-4,64.3,56.5,52.3,52.0,46.9,44.0,73,70,65,29.99,29.86,13,3,14,0.00
2013-6-5,61.4,54.2,50.1,50.0,45.0,41.0,73,71,66,30.02,29.95,6,2,9,0.01
2013-6-6,61.7,54.3,50.2,51.0,45.3,42.0,73,72,66,29.97,29.84,9,3,15,0.01
2013-6-7,67.9,56.0,49.5,54.0,46.2,41.0,73,70,60,29.89,29.73,6,2,8,0.01
2013-6-8,66.6,58.0,51.1,54.0,48.0,42.0,73,70,63,29.84,29.73,14,4,22,0.00
2013-6-9,67.2,59.2,52.7,55.0,49.2,44.0,72,70,64,29.91,29.83,9,3,12,0.00
2013-6-10,62.1,56.5,53.3,52.0,47.3,44.0,72,71,69,29.98,29.83,6,1,8,0.04
2013-6-11,62.2,57.1,51.5,50.0,47.1,42.0,72,69,65,30.01,29.91,15,3,20,0.00
2013-6-12,60.0,55.1,47.4,48.0,44.8,39.0,73,69,64,30.05,29.93,17,4,26,0.00
2013-6-13,64.1,54.6,45.0,50.0,44.3,37.0,73,68,60,30.13,30.04,16,5,25,0.00
2013-6-14,60.6,53.9,47.6,49.0,44.2,39.0,73,70,65,30.04,29.83,12,3,18,0.00
2013-6-15,59.1,52.6,45.3,49.0,43.5,37.0,76,71,67,30.02,29.83,18,3,20,0.00
2013-6-16,62.1,53.5,45.0,51.0,43.9,37.0,73,70,65,30.11,30.00,12,3,19,0.00
2013-6-17,61.6,55.2,47.9,51.0,46.1,40.0,73,71,69,30.12,30.04,15,3,19,0.01
2013-6-18,62.3,55.2,49.7,50.0,45.8,41.0,73,71,63,30.06,30.00,14,4,21,0.01
2013-6-19,60.5,55.2,47.4,49.0,45.4,39.0,76,70,62,30.08,30.04,20,4,28,0.00
2013-6-20,59.6,54.8,49.0,48.0,45.0,41.0,73,70,65,30.08,29.98,17,4,21,0.00
2013-6-21,63.8,55.6,47.9,52.0,45.7,40.0,73,69,64,30.00,29.94,12,4,22,0.00
2013-6-22,63.6,56.5,48.4,52.0,46.4,40.0,73,69,62,29.95,29.88,12,4,24,0.00
2013-6-23,63.1,57.6,52.5,53.0,48.1,43.0,72,70,69,29.88,29.81,8,2,14,0.12
2013-6-24,59.7,56.4,52.4,49.0,46.3,43.0,71,69,67,29.89,29.79,12,3,16,0.32
2013-6-25,60.9,59.1,57.2,47.0,45.2,41.0,67,61,54,29.97,29.85,18,4,18,1.25
2013-6-26,73.8,62.8,56.9,61.0,43.6,33.0,64,50,39,30.07,29.96,10,2,14,0.06
2013-6-27,69.6,59.6,52.8,55.0,37.6,28.0,62,45,36,30.13,30.03,9,2,15,0.01
2013-6-28,72.0,60.8,53.8,57.0,38.8,26.0,62,45,32,30.04,29.93,12,3,19,0.00
2013-6-29,69.9,62.4,54.6,55.0,44.3,29.0,61,53,34,29.94,29.84,13,3,16,0.00
2013-6-30,65.1,58.3,52.3,49.0,36.2,25.0,58,44,31,29.86,29.79,13,3,18,0.00
2013-7-1,73.0,59.4,51.0,58.0,37.5,23.0,60,45,29,29.86,29.81,13,2,18,0.01
2013-7-2,71.5,59.5,52.4,56.0,36.2,23.0,61,43,30,29.93,29.81,13,3,22,0.02
2013-7-3,71.1,60.5,54.5,56.0,36.5,22.0,59,42,27,29.91,29.77,9,1,16,0.00
2013-7-4,75.1,63.9,55.1,58.0,45.0,27.0,60,51,30,29.81,29.70,14,4,20,0.02
2013-7-5,63.2,57.0,50.4,48.0,36.2,19.0,59,47,27,29.76,29.68,11,3,17,0.00
2013-7-6,63.3,54.1,50.3,48.0,26.4,17.0,58,35,25,29.82,29.73,5,1,8,0.00
2013-7-7,61.1,54.7,50.7,40.0,21.8,13.0,47,29,21,29.87,29.79,8,2,9,0.00
2013-7-8,60.4,54.0,50.4,35.0,14.0,7.0,39,21,16,29.99,29.87,6,1,9,0.01
2013-7-9,61.3,53.7,49.5,28.0,3.9,-4.0,30,14,9,30.06,29.96,7,2,9,0.01
2013-7-10,61.3,53.9,49.3,32.0,3.3,-14.0,36,14,6,30.01,29.94,7,2,9,0.02
2013-7-11,53.2,50.6,49.6,-5.0,-7.4,-9.0,9,9,8,29.96,29.92,3,1,6,0.00
2013-7-12,65.4,56.7,50.8,31.0,-9.7,-31.0,28,8,2,29.97,29.86,7,3,11,0.01
2013-7-13,63.6,55.5,49.7,28.0,-14.3,-46.0,27,6,1,29.99,29.88,8,2,9,0.00
2013-7-14,61.2,54.4,50.2,7.0,-32.1,-99.9,12,4,1,30.02,29.93,7,2,11,0.01
2013-7-15,63.2,55.2,50.3,20.0,-42.4,-202.0,19,4,1,29.94,29.86,8,3,12,0.01
2013-7-16,66.4,57.9,52.9,8.0,-60.2,-202.0,10,1,1,30.04,29.87,13,2,15,0.03
2013-7-17,62.2,57.7,51.2,-44.0,-94.2,-202.0,1,0,1,30.12,30.02,10,2,15,0.00
2013-7-18,64.6,55.6,49.1,17.0,-64.6,-202.0,16,2,1,30.07,29.93,9,2,17,0.00
2013-7-19,64.5,55.2,49.8,20.0,-71.3,-202.0,18,1,1,29.96,29.82,11,3,16,0.01
2013-7-20,68.6,56.3,48.5,40.0,-39.3,-202.0,36,8,1,29.86,29.73,8,2,11,0.00
2013-7-21,58.2,53.5,52.1,-46.0,-94.3,-202.0,1,0,1,29.89,29.78,7,2,9,0.00
2013-7-22,65.9,57.3,52.1,21.0,-60.8,-202.0,18,2,1,29.98,29.88,8,2,13,0.01
2013-7-23,66.2,58.2,54.1,17.0,-64.7,-202.0,15,2,1,30.03,29.95,6,1,8,0.00
2013-7-24,66.1,57.4,52.2,27.0,-76.4,-202.0,23,2,1,30.02,29.93,7,2,12,0.00
2013-7-25,63.1,56.1,52.6,28.0,-78.5,-202.0,28,3,1,30.04,29.91,9,3,11,0.00
2013-7-26,61.6,55.7,51.8,27.0,-63.7,-202.0,27,3,1,30.11,30.02,7,2,10,0.01
2013-7-27,63.9,56.2,52.2,39.0,-60.8,-202.0,40,6,1,30.04,29.89,7,2,10,0.02
2013-7-28,59.9,55.7,52.7,-12.0,-88.8,-202.0,5,0,1,29.89,29.81,7,2,11,0.01
2013-7-29,61.2,55.8,53.6,8.0,-84.6,-202.0,12,1,1,30.02,29.84,10,2,11,0.01
2013-7-30,61.5,55.5,53.3,27.0,-78.9,-202.0,28,3,1,30.14,30.02,6,2,8,0.00
2013-7-31,64.0,57.9,52.8,39.0,-31.1,-202.0,40,15,2,30.10,30.01,16,4,24,0.00
2013-8-1,63.3,56.6,50.7,38.0,-41.9,-202.0,41,12,1,30.07,29.98,18,6,23,0.00
2013-8-2,61.9,55.0,47.6,32.0,-46.4,-202.0,33,9,1,29.98,29.89,10,3,18,0.01
2013-8-3,62.9,53.6,48.0,39.0,-51.7,-202.0,41,7,1,30.00,29.89,9,2,10,0.01
2013-8-4,63.8,55.2,51.2,40.0,-63.0,-202.0,42,8,1,30.02,29.95,8,2,10,0.00
2013-8-5,59.3,54.2,51.2,30.0,-69.0,-202.0,33,4,1,30.04,29.98,6,2,9,0.01
2013-8-6,65.8,57.3,51.9,45.0,-36.4,-202.0,49,15,1,30.05,29.98,7,2,8,0.00
2013-8-7,69.0,60.3,55.2,47.0,-39.8,-202.0,46,14,1,30.11,30.04,11,3,17,0.00
2013-8-8,62.0,56.5,51.9,33.0,-65.9,-202.0,34,5,1,30.04,29.94,11,2,15,0.01
2013-8-9,63.7,56.4,49.6,40.0,-56.6,-202.0,43,8,1,29.99,29.92,7,2,10,0.00
2013-8-10,65.8,58.6,54.1,40.0,-54.2,-202.0,40,8,1,30.06,29.99,6,1,8,0.00
2013-8-11,64.9,56.4,50.1,38.0,-48.7,-202.0,38,5,1,30.03,29.93,8,1,13,0.00
2013-8-12,64.6,55.9,50.5,42.0,-45.8,-202.0,45,8,1,30.02,29.93,5,2,10,0.01
2013-8-13,71.9,57.4,48.3,54.0,-17.6,-202.0,56,21,1,30.01,29.92,8,2,14,0.00
2013-8-14,68.4,59.1,49.7,41.0,-34.8,-202.0,43,11,1,29.98,29.91,16,3,19,0.00
2013-8-15,71.7,62.9,57.7,49.0,-59.3,-202.0,44,9,1,29.97,29.91,7,1,10,0.01
2013-8-16,66.5,60.3,54.2,42.0,-25.0,-202.0,43,10,1,30.00,29.92,14,2,17,0.01
2013-8-17,68.0,59.9,53.2,47.0,-18.4,-99.9,50,18,1,29.98,29.86,13,3,20,0.00
2013-8-18,67.2,58.5,51.2,49.0,-24.1,-202.0,53,20,1,29.90,29.77,6,2,8,0.00
2013-8-19,66.8,59.0,53.7,40.0,-52.1,-202.0,38,8,1,29.94,29.79,7,1,12,0.00
2013-8-20,68.9,60.9,55.0,48.0,-37.1,-202.0,48,12,1,29.90,29.82,18,4,24,0.00
2013-8-21,69.1,61.1,58.0,51.0,-38.7,-202.0,53,15,1,29.95,29.89,12,2,13,0.00
2013-8-22,68.1,60.1,56.1,50.0,-46.6,-202.0,52,14,1,29.99,29.91,7,2,10,0.01
2013-8-23,66.5,57.8,52.5,47.0,-40.4,-202.0,49,11,1,29.92,29.82,12,3,19,0.00
2013-8-24,62.7,56.4,50.0,29.0,-47.7,-202.0,29,5,1,29.90,29.82,12,2,14,0.01
2013-8-25,71.7,61.2,55.1,50.0,-57.2,-202.0,46,9,1,29.96,29.87,8,1,9,0.00
2013-8-26,65.6,58.3,52.6,46.0,-13.8,-202.0,50,14,1,30.03,29.92,12,2,19,0.00
2013-8-27,67.4,58.7,52.2,41.0,-41.2,-202.0,39,9,1,29.92,29.84,13,2,20,0.00
2013-8-28,70.8,61.0,54.3,48.0,-52.8,-202.0,44,8,1,29.95,29.84,7,1,8,0.01
2013-8-29,69.8,63.3,59.2,41.0,-55.2,-202.0,37,5,1,30.08,29.94,6,1,10,0.01
2013-8-30,69.8,62.2,56.1,47.0,-20.5,-202.0,44,14,1,30.04,29.93,12,3,18,0.08
2013-8-31,66.6,57.8,51.1,57.0,-11.7,-202.0,95,36,1,29.98,29.88,12,2,17,0.01
2013-9-1,67.8,58.3,49.6,62.0,55.3,48.0,98,89,78,29.96,29.90,7,2,11,0.00
2013-9-2,72.9,62.9,55.9,64.0,59.4,54.0,97,88,73,29.96,29.89,7,3,10,0.00
2013-9-3,67.1,60.4,52.6,61.0,56.1,50.0,94,86,76,30.01,29.94,14,3,18,0.01
2013-9-4,66.1,60.8,55.3,60.0,57.0,54.0,96,87,78,30.04,29.95,17,4,20,0.00
2013-9-5,64.9,60.2,55.5,58.0,56.2,54.0,95,86,75,30.02,29.95,13,3,19,0.00
2013-9-6,72.6,61.6,53.4,56.0,54.2,51.0,93,78,54,30.01,29.83,7,1,10,0.00
2013-9-7,69.5,59.7,53.1,56.0,53.2,50.0,92,79,62,29.89,29.82,5,1,7,0.00
2013-9-8,63.0,55.5,50.0,57.0,53.3,49.0,98,92,78,29.89,29.79,8,1,12,0.00
2013-9-9,64.7,56.2,48.1,59.0,53.9,47.0,99,92,77,29.83,29.73,6,1,9,0.02
2013-9-10,67.2,60.2,54.3,61.0,57.9,54.0,99,92,79,29.89,29.73,13,4,22,0.01
2013-9-11,71.5,63.5,60.6,63.0,60.2,59.0,96,89,72,30.00,29.89,12,3,18,0.01
2013-9-12,67.0,60.4,54.2,60.0,57.7,53.0,97,91,76,29.98,29.88,8,2,15,0.00
2013-9-13,63.8,57.2,51.9,58.0,54.5,51.0,99,91,79,29.90,29.76,12,2,18,0.00
2013-9-14,63.3,57.6,53.0,57.0,54.7,52.0,98,90,78,29.82,29.73,9,3,16,0.01
2013-9-15,68.5,59.1,50.9,57.0,54.5,50.0,97,85,66,29.88,29.77,8,2,9,0.01
2013-9-16,65.0,58.6,52.1,57.0,54.6,51.0,98,87,72,29.89,29.81,16,4,24,0.00
2013-9-17,64.6,58.9,52.8,56.0,53.6,51.0,96,83,68,29.93,29.82,15,4,20,0.01
2013-9-18,66.8,57.6,51.3,54.0,50.3,47.0,89,77,62,29.92,29.84,12,3,20,0.00
2013-9-19,69.2,56.1,48.6,55.0,50.1,46.0,92,80,59,29.88,29.77,8,2,14,0.00
2013-9-20,71.2,59.8,50.1,63.0,55.2,46.0,98,85,71,29.84,29.76,13,3,17,0.22
2013-9-21,68.1,59.5,52.7,62.0,57.2,52.0,99,92,75,29.90,29.76,6,2,13,0.20
2013-9-22,63.5,56.7,48.4,56.0,52.9,48.0,97,87,75,30.02,29.90,11,3,15,0.01
2013-9-23,66.2,60.6,53.5,61.0,56.3,52.0,95,86,76,30.03,29.93,13,3,15,0.00
2013-9-24,65.2,59.5,54.2,57.0,53.5,50.0,89,80,67,30.02,29.94,13,4,21,0.00
2013-9-25,63.4,56.4,50.4,53.0,49.0,43.0,91,77,55,29.96,29.88,18,4,22,0.00
2013-9-26,64.5,55.5,46.6,50.0,45.8,40.0,82,70,55,30.01,29.89,15,4,25,0.00
2013-9-27,62.9,55.3,45.8,52.0,47.1,43.0,88,74,53,30.11,30.02,10,3,15,0.00
2013-9-28,67.1,56.5,46.8,58.0,50.0,43.0,95,80,60,30.09,30.02,10,3,11,0.00
2013-9-29,63.9,59.8,55.7,63.0,58.6,54.0,99,95,90,30.09,30.03,9,3,13,0.14
2013-9-30,70.3,60.0,51.5,64.0,56.9,48.0,99,90,66,30.05,29.99,9,2,12,0.13
2013-10-1,63.4,56.9,51.0,52.0,49.5,45.0,92,77,63,30.03,29.96,16,4,22,0.00
2013-10-2,63.0,56.2,50.2,50.0,46.7,42.0,87,71,54,30.07,29.96,18,4,22,0.00
2013-10-3,68.6,59.2,50.5,48.0,42.5,35.0,69,56,33,30.12,30.01,14,5,22,0.00
2013-10-4,71.4,60.1,50.9,47.0,39.1,28.0,65,47,22,30.09,30.03,11,3,15,0.00
2013-10-5,76.2,60.7,46.4,45.0,35.8,26.0,70,44,16,30.18,30.08,15,6,17,0.00
2013-10-6,78.0,60.1,46.5,49.0,39.8,36.0,69,50,26,30.11,29.99,13,6,19,0.00
2013-10-7,64.5,55.4,45.4,51.0,44.4,38.0,85,67,44,29.99,29.90,13,5,17,0.00
2013-10-8,64.4,54.9,48.7,49.0,46.8,44.0,85,75,55,29.91,29.76,15,3,21,0.00
2013-10-9,60.0,53.7,48.4,47.0,45.3,43.0,85,74,61,29.77,29.65,12,4,20,0.00
2013-10-10,58.4,51.1,46.0,52.0,46.4,42.0,94,84,71,30.00,29.76,12,3,14,0.00
2013-10-11,58.7,50.0,43.8,52.0,47.1,43.0,97,90,77,30.11,29.99,8,2,10,0.00
2013-10-12,61.2,51.1,42.6,50.0,46.1,41.0,95,84,61,30.01,29.92,12,4,20,0.01
2013-10-13,62.3,51.9,44.9,52.0,47.7,43.0,95,86,67,30.06,29.94,9,3,11,0.00
2013-10-14,67.0,53.2,43.7,50.0,43.9,40.0,89,73,43,30.12,30.03,11,5,15,0.00
2013-10-15,73.3,55.2,44.1,50.0,41.7,36.0,81,63,26,30.04,29.96,13,5,16,0.00
2013-10-16,71.9,55.5,43.8,43.0,38.6,34.0,76,56,25,30.08,29.98,12,5,15,0.00
2013-10-17,62.2,52.4,44.1,53.0,43.0,36.0,93,71,42,30.09,29.97,11,4,14,0.00
2013-10-18,54.5,47.8,41.6,50.0,45.5,39.0,97,91,82,30.07,29.99,8,2,8,0.00
2013-10-19,56.3,47.4,40.0,52.0,45.9,39.0,99,94,84,30.10,30.03,8,1,9,0.00
2013-10-20,57.0,47.5,41.3,51.0,45.9,40.0,99,94,81,30.04,29.93,5,2,8,0.01
2013-10-21,54.3,48.0,43.6,52.0,47.2,43.0,99,96,90,30.02,29.94,8,2,10,0.01
2013-10-22,55.4,48.1,41.4,52.0,47.1,41.0,99,96,87,30.05,29.95,7,1,10,0.01
2013-10-23,54.2,48.0,40.4,51.0,46.9,40.0,99,96,88,29.98,29.93,6,1,11,0.00
2013-10-24,59.6,52.0,46.8,51.0,48.7,45.0,98,88,73,30.11,29.96,6,2,10,0.01
2013-10-25,60.1,51.4,44.0,53.0,48.1,43.0,96,89,75,30.19,30.09,10,4,12,0.00
2013-10-26,55.0,48.3,43.4,52.0,47.1,42.0,98,95,86,30.16,30.04,6,2,9,0.00
2013-10-27,55.9,49.9,42.5,51.0,46.9,42.0,98,90,79,30.04,29.69,18,5,23,0.01
2013-10-28,56.8,52.3,45.9,50.0,47.2,43.0,93,83,72,29.82,29.68,13,4,19,0.00
2013-10-29,57.2,48.8,39.6,52.0,45.6,38.0,96,89,77,30.06,29.82,9,4,12,0.01
2013-10-30,59.2,48.7,41.1,51.0,45.5,40.0,97,89,73,30.16,30.06,9,3,12,0.01
2013-10-31,61.7,50.1,40.9,52.0,45.6,39.0,94,85,60,30.19,30.08,10,4,11,0.00
2013-11-1,61.1,51.0,44.7,53.0,47.8,43.0,96,89,68,30.15,30.02,11,3,12,0.00
2013-11-2,61.4,52.2,44.2,55.0,46.8,40.0,95,83,64,30.05,29.94,14,5,19,0.00
2013-11-3,59.5,52.4,47.0,45.0,39.2,34.0,76,62,40,30.11,29.97,13,4,19,0.00
2013-11-4,62.9,51.1,40.9,46.0,39.5,34.0,81,66,40,30.11,29.95,10,3,17,0.00
2013-11-5,63.6,53.3,43.2,53.0,45.6,37.0,94,76,59,30.21,30.10,10,3,14,0.00
2013-11-6,62.9,54.8,48.3,55.0,49.3,46.0,94,82,63,30.25,30.15,10,3,11,0.00
2013-11-7,60.8,54.6,49.9,54.0,49.1,44.0,92,82,62,30.18,30.08,13,3,13,0.00
2013-11-8,57.8,52.7,46.6,53.0,49.3,44.0,95,88,80,30.10,29.97,9,3,14,0.00
2013-11-9,65.0,51.2,42.5,51.0,45.7,41.0,95,83,56,30.05,29.97,10,3,16,0.00
2013-11-10,59.8,52.8,46.5,52.0,49.2,45.0,96,88,75,30.12,30.01,15,4,19,0.01
2013-11-11,59.2,53.1,46.3,52.0,49.1,45.0,95,86,76,30.18,30.07,9,3,13,0.00
2013-11-12,65.3,57.7,52.6,54.0,51.3,48.0,93,80,64,30.27,30.17,13,2,15,0.00
2013-11-13,60.3,52.2,47.2,56.0,50.1,46.0,97,92,81,30.27,30.11,8,2,15,0.00
2013-11-14,58.3,52.4,46.9,53.0,48.8,42.0,98,88,76,30.11,29.94,12,2,18,0.01
2013-11-15,59.3,50.3,44.3,47.0,43.7,40.0,90,79,53,29.94,29.75,12,3,20,0.00
2013-11-16,56.5,50.6,44.3,52.0,45.8,39.0,95,84,73,29.94,29.80,9,3,20,0.00
2013-11-17,54.7,47.5,40.5,50.0,44.4,39.0,96,89,76,30.09,29.93,9,3,12,0.01
2013-11-18,57.8,49.5,40.0,52.0,46.1,39.0,97,88,75,30.15,30.07,10,3,16,0.26
2013-11-19,55.9,54.4,51.0,55.0,53.9,50.0,98,97,96,30.08,29.91,19,7,24,0.95
2013-11-20,55.8,53.2,48.3,56.0,52.5,47.0,99,97,91,29.92,29.86,7,1,12,0.15
2013-11-21,66.7,51.5,44.2,52.0,42.0,24.0,99,74,28,30.00,29.90,14,3,17,0.00
2013-11-22,74.9,54.8,38.2,42.0,27.5,7.0,78,43,8,30.03,29.90,14,6,24,0.00
2013-11-23,62.2,49.8,39.8,43.0,35.3,25.0,87,59,37,30.09,29.94,16,7,18,0.00
2013-11-24,58.3,45.7,34.4,50.0,40.6,32.0,95,83,48,30.25,30.09,12,6,16,0.00
2013-11-25,59.6,47.2,38.3,47.0,41.7,37.0,95,83,54,30.31,30.23,13,6,16,0.00
2013-11-26,60.6,48.7,40.6,49.0,43.1,39.0,93,82,55,30.26,30.02,14,6,19,0.00
2013-11-27,63.8,52.2,41.6,50.0,44.0,39.0,93,75,49,30.02,29.82,14,5,17,0.00
2013-11-28,63.1,51.2,43.0,54.0,45.3,40.0,90,81,56,30.07,29.85,14,5,16,0.00
2013-11-29,60.8,48.7,40.7,55.0,44.9,39.0,97,87,68,30.21,30.06,12,5,14,0.01
2013-11-30,60.7,50.5,42.5,55.0,47.3,41.0,95,88,77,30.29,30.20,11,4,15,0.00
2013-12-1,62.9,52.1,43.5,54.0,48.3,42.0,95,87,64,30.34,30.23,10,3,13,0.00
2013-12-2,57.9,52.5,45.3,54.0,50.4,43.0,98,93,82,30.24,29.98,13,4,18,0.10
2013-12-3,53.8,47.7,40.9,49.0,38.3,33.0,94,71,47,29.98,29.88,18,4,21,0.00
2013-12-4,51.5,41.2,32.4,36.0,32.6,30.0,91,73,48,30.09,29.98,14,4,16,0.00
2013-12-5,49.9,37.2,29.7,36.0,30.3,28.0,92,78,46,30.16,30.08,13,6,16,0.00
2013-12-6,49.3,40.2,29.5,48.0,36.3,27.0,96,86,61,30.16,29.92,15,7,19,0.30
2013-12-7,46.5,39.4,29.9,41.0,30.2,25.0,92,71,46,30.27,29.94,17,4,23,0.01
2013-12-8,47.9,36.0,28.9,30.0,27.5,24.0,91,74,39,30.33,30.25,14,6,19,0.00
2013-12-9,52.3,37.3,27.9,36.0,29.8,24.0,91,76,47,30.42,30.30,14,6,18,0.00
2013-12-10,52.6,39.2,29.3,44.0,34.3,27.0,93,84,61,30.41,30.20,15,6,17,0.00
2013-12-11,54.3,40.8,32.0,44.0,35.4,30.0,94,82,50,30.24,30.18,14,6,16,0.00
2013-12-12,54.9,42.2,32.5,49.0,37.5,31.0,92,84,60,30.25,30.18,16,7,17,0.00
2013-12-13,55.6,46.7,41.5,48.0,44.2,40.0,95,91,76,30.31,30.26,6,2,10,0.00
2013-12-14,48.6,45.2,38.8,47.0,43.8,38.0,97,95,91,30.41,30.31,8,2,9,0.00
2013-12-15,38.4,37.3,36.5,37.0,36.4,36.0,97,96,96,30.37,30.35,8,4,9,0.00
2013-12-18,50.6,47.6,44.8,47.0,44.1,42.0,92,87,82,29.85,29.84,6,2,11,0.00
2013-12-19,56.6,48.4,41.0,43.0,37.9,31.0,83,68,49,29.97,29.77,11,4,23,0.00
2013-12-20,57.9,47.3,37.4,45.0,37.5,29.0,87,70,48,30.05,29.95,10,3,15,0.00
2013-12-21,59.4,49.7,44.2,51.0,46.7,43.0,96,89,72,30.09,30.01,11,3,18,0.00
2013-12-22,60.4,48.7,40.9,50.0,44.1,39.0,94,85,64,30.28,30.09,13,4,13,0.01
2013-12-23,60.4,48.8,40.3,50.0,43.7,39.0,94,83,59,30.41,30.27,12,5,16,0.00
2013-12-24,58.6,50.7,42.1,51.0,46.6,41.0,95,86,66,30.31,30.20,8,2,11,0.00
2013-12-25,57.3,46.0,37.4,50.0,42.5,36.0,95,88,65,30.29,30.20,11,5,15,0.00
2013-12-26,58.5,46.1,36.6,50.0,41.0,34.0,93,83,50,30.24,30.15,13,7,16,0.01
2013-12-27,58.6,46.3,38.8,49.0,40.8,35.0,93,82,58,30.21,30.13,17,6,19,0.00
2013-12-28,58.3,45.7,35.5,50.0,40.8,34.0,94,83,65,30.16,30.04,12,5,16,0.00
2013-12-29,63.5,47.7,36.7,40.0,34.8,29.0,83,65,32,30.16,30.07,15,6,17,0.00
2013-12-30,62.2,49.1,36.0,49.0,40.6,31.0,93,74,44,30.25,30.15,15,4,16,0.00
2013-12-31,53.8,47.1,41.1,49.0,44.3,40.0,95,90,81,30.28,30.17,10,4,10,0.00
2014-1-1,54.1,44.1,35.6,48.0,41.3,34.0,95,90,78,30.22,30.13,11,4,12,0.00
2014-1-2,57.5,45.9,38.9,50.0,42.8,37.0,96,89,62,30.18,30.06,12,4,13,0.01